Terminal Aerodrome Forecast
Issued by NWS

Home | Current Version | Previous Version | Graphics & Text | Print | Product List | Glossary Off
Versions: 1 2 3 4 5 6 7 8 9 10 11 12 13 14

000
FTUS43 KMPX 011730
TAFRWF
TAF
KRWF 011730Z 0118/0218 10006KT P6SM FEW050
     FM011900 11006KT P6SM SCT050
     FM021000 VRB02KT 2SM BR SCT005 SCT250
     FM021400 15005KT P6SM SCT250=

USA.gov is the U.S. government's official web portal to all federal, state and local government web resources and services.